Kinetic-One Castle Combe TT, June 2014
Skip Navigation Links
Results
Race Series
Event Stats
11 June 2014
HyperLink
Ckick your name for detailed race data.
Page 1 of 1 (41 items)
Pos
Bib No
Fav
Share
Name
Time
Category
Cat Pos
Gender
Gen Pos
Start
Pace
Split 1
G/Pos
Lap 1
G/Pos
Lap 2
G/Pos
Lap 3
G/Pos
Lap 4
G/Pos
Lap 5
G/Pos
138Ioan Smallwood21:18.1Sen1Male107:38:0028.2 m/hr1:45.113:53.323:57.723:53.713:57.823:50.21
237Ben Anstie21:18.7Sen2Male207:37:0028.2 m/hr1:48.223:53.013:53.413:56.723:56.913:50.32
344Peter Kibble22:32.2Jun1Male307:44:0026.6 m/hr1:48.734:09.544:11.644:09.934:07.534:04.73
435Russ Thompson Chris Beardshaw22:45.22Up1Male407:35:0026.4 m/hr1:57.054:05.734:07.434:12.754:13.644:08.65
542Chris Wood22:52.3Vet1Male507:42:0026.2 m/hr1:55.144:10.854:12.254:11.244:14.754:08.04
612Andy Morgan23:50.3Vet2Male607:04:0025.2 m/hr2:03.494:19.064:21.974:21.664:24.984:19.48
741Jonathan Griffin23:50.6SupVet1Male707:41:0025.2 m/hr1:58.464:20.774:23.084:26.484:23.364:18.67
843John Wood23:53.8Sen3Male807:43:0025.1 m/hr2:01.784:22.184:18.764:22.874:24.774:23.59
945Ben Skinner24:08.9Sen4Male907:45:0024.8 m/hr2:01.174:28.3104:28.494:29.794:25.794:15.46
1014Luke Davies24:39.9Jun2Male1007:14:0024.3 m/hr2:04.8104:25.894:32.0104:31.7104:37.1114:28.312
1132Chris Balodis24:54.0Vet3Male1107:32:0024.1 m/hr2:07.0124:31.5114:33.9114:36.5124:37.0104:27.711
1210Andrew Spearman25:08.1SupVet2Male1207:34:0023.9 m/hr2:10.5174:36.3144:39.8144:33.7114:41.3154:26.310
1323Sian Cahill25:13.5Sen1Female107:23:0023.8 m/hr2:05.914:36.914:39.314:40.114:37.614:33.41
1439Peter Tantrum25:20.0Vet4Male1307:39:0023.7 m/hr2:15.9214:35.6134:36.3124:39.0134:37.6124:35.515
1530Hywel Iorwertt25:27.6Sen5Male1407:30:0023.6 m/hr2:08.1154:36.8154:44.5184:44.2164:39.7144:34.013
1624Shaun Featherstone25:32.3SupVet3Male1507:24:0023.5 m/hr2:08.9164:33.0124:39.4134:44.1144:46.5194:40.116
1734Marc Jackson25:33.7Vet5Male1607:10:0023.5 m/hr2:13.3194:37.8164:41.9164:44.8194:41.5164:34.114
1818Chrissie Waple25:40.3Sen2Female207:18:0023.4 m/hr2:14.134:41.624:44.524:42.524:38.824:38.62
1936James Kyffin25:44.2Sen6Male1707:36:0023.3 m/hr2:07.5134:41.5204:42.9174:44.7184:42.8174:44.620
2031James Bishop25:51.0Vet6Male1807:31:0023.2 m/hr2:11.5184:38.7174:40.6154:44.2154:51.1244:44.619
2125Anna Seymour25:56.5Sen3Female307:25:0023.1 m/hr2:10.924:45.534:47.734:44.034:44.534:43.73
222Liam Warren25:59.4Sen7Male1907:02:0023.1 m/hr2:17.5224:39.8184:46.6204:44.7174:44.7184:45.921
235Dave Farmer26:07.3SupVet601Male2007:05:0023.0 m/hr2:07.8144:41.8214:48.4214:51.0224:48.6204:49.522
2429John Faulkner26:14.6SupVet4Male2107:29:0022.9 m/hr2:21.9254:47.4224:45.0194:47.5214:48.8214:43.718
2533Alex Knox26:15.2Vet7Male2207:33:0022.9 m/hr2:06.6114:40.0194:49.0224:55.7244:50.5234:53.224
2622Jonathan Sinclair26:35.1SupVet602Male2307:22:0022.6 m/hr2:18.5235:01.1264:56.7254:46.3204:38.1134:54.225
2717Phil Ord26:41.1Sen8Male2407:17:0022.5 m/hr2:22.4274:50.2234:54.5245:00.3264:50.1224:43.417
2820Robin Fox26:45.8SupVet5Male2507:20:0022.4 m/hr2:24.2284:51.1244:52.0234:55.5234:53.3254:49.523
299Martin Ringrose27:12.2Vet8Male2607:09:0022.1 m/hr2:15.4204:56.8255:01.8264:57.8255:03.9264:56.126
3016Amy Bentley27:41.4Sen4Female407:16:0021.7 m/hr2:21.545:03.345:01.745:13.245:05.144:56.44
317Steve Ford27:56.9Vet9Male2707:07:0021.5 m/hr2:22.2265:01.7275:12.6285:09.6275:12.8284:57.927
328Nigel Shires28:22.8SupVet6Male2807:08:0021.1 m/hr2:26.0295:14.8285:12.9295:12.0285:11.4275:05.529
3315Simon Wilson28:33.9Vet10Male2907:15:0021.0 m/hr2:26.3305:16.4295:11.3275:17.2295:19.5295:02.928
3428Paul Kilmister29:10.3SupVet7Male3007:28:0020.6 m/hr2:20.1245:16.6305:21.2305:22.2305:26.4305:23.531
3511Bethan Rhodes29:32.8Sen5Female507:11:0020.3 m/hr2:32.665:27.265:23.155:23.355:24.555:21.75
3613Derek Morgan29:33.3SupVet603Male3107:13:0020.3 m/hr2:33.9315:26.2315:25.4315:22.4315:26.9315:18.230
3719Zoe Ludwig-Tantrum29:58.4Vet1Female607:19:0020.0 m/hr2:37.475:19.255:24.065:30.165:34.265:33.36
381Hannah Maynard31:24.2Jun1Female707:01:0019.1 m/hr2:30.355:39.675:49.475:52.275:48.275:44.37
394Phil Thomas31:37.2SupVet8Male3207:12:0019.0 m/hr2:45.5335:43.2325:40.1325:47.3325:50.5325:50.333
4026Graham Hewson32:07.4SupVet604Male3307:26:0018.7 m/hr2:37.0325:57.5335:55.4335:52.8335:54.9335:49.632
413Vicky Ody36:29.9Vet2Female807:03:0016.4 m/hr3:16.086:46.286:33.986:40.786:48.586:24.48
Page 1 of 1 (41 items)
fb

HyperLink Copyright (c) G Vincent, 2017